Time;durP1;ratioP1;P1;durP2;ratioP2;P2;SDS_P1;SDS_P2;PMS_P1;PMS_P2;Temp;Humidity;BMP_temperature;BMP_pressure;BME280_temperature;BME280_humidity;BME280_pressure;Samples;Min_cycle;Max_cycle;Signal;HPM_P1;HPM_P2
2023/05/14 00:01:18;;;;;;;12.25;6.10;;;13.70;99.90;;;;;;5094826;28;20036;-87
2023/05/14 00:03:43;;;;;;;11.82;6.45;;;13.70;99.90;;;;;;5111736;28;20031;-87
2023/05/14 00:06:09;;;;;;;13.70;9.32;;;13.60;99.90;;;;;;5111865;28;20039;-87
2023/05/14 00:08:35;;;;;;;12.48;7.07;;;13.60;99.90;;;;;;5111657;28;20039;-87
2023/05/14 00:11:01;;;;;;;10.88;6.35;;;13.60;99.90;;;;;;5094312;28;20043;-87
2023/05/14 00:13:27;;;;;;;14.68;7.65;;;13.50;99.90;;;;;;5111590;28;20088;-87
2023/05/14 00:15:53;;;;;;;14.10;9.57;;;13.50;99.90;;;;;;5094651;28;20122;-87
2023/05/14 00:18:19;;;;;;;13.10;7.28;;;13.50;99.90;;;;;;5094698;28;20138;-87
2023/05/14 00:20:45;;;;;;;12.32;6.57;;;13.50;99.90;;;;;;5094016;28;20477;-87
2023/05/14 00:23:10;;;;;;;13.50;9.52;;;13.30;99.90;;;;;;5094425;28;20054;-88
2023/05/14 00:25:36;;;;;;;12.90;6.85;;;13.40;99.90;;;;;;5094293;28;20043;-88
2023/05/14 00:28:02;;;;;;;13.52;6.15;;;13.40;99.90;;;;;;5094566;28;20055;-88
2023/05/14 00:30:28;;;;;;;15.60;9.70;;;13.30;99.90;;;;;;5094017;28;20386;-88
2023/05/14 00:32:54;;;;;;;13.05;6.38;;;13.30;99.90;;;;;;5112507;28;20088;-88
2023/05/14 00:35:20;;;;;;;17.33;9.13;;;13.30;99.90;;;;;;5094180;28;20126;-88
2023/05/14 00:37:46;;;;;;;14.27;9.20;;;13.30;99.90;;;;;;5111645;28;20041;-88
2023/05/14 00:40:12;;;;;;;15.05;9.88;;;13.40;99.90;;;;;;5094232;28;20421;-88
2023/05/14 00:42:41;;;;;;;13.52;6.57;;;13.40;99.90;;;;;;5111267;28;20084;-88
2023/05/14 00:45:07;;;;;;;13.55;6.88;;;13.30;99.90;;;;;;5111467;28;20657;-88
2023/05/14 00:47:35;;;;;;;18.95;6.63;;;13.20;99.90;;;;;;5110920;28;20122;-88
2023/05/14 00:50:03;;;;;;;14.55;6.70;;;13.20;99.90;;;;;;5093715;28;20097;-88
2023/05/14 00:52:28;;;;;;;13.27;10.00;;;13.10;99.90;;;;;;5094246;28;20065;-88
2023/05/14 00:54:55;;;;;;;14.30;9.95;;;13.20;99.90;;;;;;5094092;28;20039;-88
2023/05/14 00:57:21;;;;;;;13.10;6.93;;;13.30;99.90;;;;;;5094140;28;20042;-88
2023/05/14 00:59:47;;;;;;;16.02;10.18;;;13.20;99.90;;;;;;5093950;28;20024;-88
2023/05/14 01:02:12;;;;;;;13.63;7.45;;;13.20;99.90;;;;;;5110982;28;20496;-88
2023/05/14 01:04:38;;;;;;;14.70;6.57;;;13.10;99.90;;;;;;5094028;28;20036;-88
2023/05/14 01:07:10;;;;;;;11.85;6.85;;;13.00;99.90;;;;;;5093971;28;20040;-88
2023/05/14 01:09:43;;;;;;;12.30;6.95;;;12.90;99.90;;;;;;5093506;28;20043;-87
2023/05/14 01:12:37;;;;;;;13.80;6.03;;;12.80;99.90;;;;;;5094241;28;20035;-88
2023/05/14 01:15:18;;;;;;;15.07;9.68;;;12.70;99.90;;;;;;5093607;28;20050;-88
2023/05/14 01:18:03;;;;;;;15.20;6.82;;;12.80;99.90;;;;;;5110670;28;20051;-88
2023/05/14 01:20:28;;;;;;;13.38;6.95;;;12.80;99.90;;;;;;5093789;28;20038;-88
2023/05/14 01:22:54;;;;;;;13.98;6.57;;;12.70;99.90;;;;;;5093864;28;20467;-88
2023/05/14 01:25:20;;;;;;;15.93;7.22;;;12.70;99.90;;;;;;5093415;28;20046;-87
2023/05/14 01:27:48;;;;;;;12.13;6.05;;;12.70;99.90;;;;;;5093950;28;20051;-88
2023/05/14 01:30:23;;;;;;;13.52;6.80;;;12.70;99.90;;;;;;5110275;28;20503;-88
2023/05/14 01:32:53;;;;;;;13.57;8.18;;;12.70;99.90;;;;;;5110789;28;20454;-88
2023/05/14 01:35:25;;;;;;;15.80;11.80;;;12.70;99.90;;;;;;5093707;28;20036;-87
2023/05/14 01:37:53;;;;;;;;;;;12.80;99.90;;;;;;5093929;28;20126;-87
2023/05/14 01:40:19;;;;;;;18.35;12.88;;;12.70;99.90;;;;;;5093486;28;20403;-87
2023/05/14 01:42:44;;;;;;;14.05;12.13;;;12.80;99.90;;;;;;5110667;28;20032;-88
2023/05/14 01:45:10;;;;;;;15.32;11.98;;;12.90;99.90;;;;;;5093659;28;20066;-88
2023/05/14 01:47:36;;;;;;;11.95;6.68;;;12.90;99.90;;;;;;5110728;28;20074;-87
2023/05/14 01:50:01;;;;;;;15.80;7.45;;;12.80;99.90;;;;;;5110133;28;20043;-88
2023/05/14 01:52:27;;;;;;;15.98;6.93;;;12.70;99.90;;;;;;5113208;28;20035;-87
2023/05/14 01:54:52;;;;;;;15.90;11.60;;;12.60;99.90;;;;;;5097589;28;20058;-87
2023/05/14 01:57:18;;;;;;;11.52;6.93;;;12.60;99.90;;;;;;5097095;28;20085;-87
2023/05/14 01:59:44;;;;;;;16.98;12.02;;;12.60;99.90;;;;;;5114052;28;20047;-87
2023/05/14 02:02:09;;;;;;;15.05;7.55;;;12.60;99.90;;;;;;5097564;28;20058;-87
2023/05/14 02:04:35;;;;;;;10.88;6.57;;;12.60;99.90;;;;;;5114258;28;20172;-88
2023/05/14 02:07:00;;;;;;;12.80;6.80;;;12.50;99.90;;;;;;5096878;28;20451;-87
2023/05/14 02:09:26;;;;;;;13.50;7.90;;;12.40;99.90;;;;;;5096986;28;20123;-87
2023/05/14 02:11:51;;;;;;;17.48;13.32;;;12.50;99.90;;;;;;5096991;28;20044;-88
2023/05/14 02:14:17;;;;;;;13.00;6.78;;;12.50;99.90;;;;;;5097044;28;20032;-87
2023/05/14 02:16:43;;;;;;;12.10;8.15;;;12.40;99.90;;;;;;5096892;28;20606;-87
2023/05/14 02:19:08;;;;;;;13.88;7.22;;;12.40;99.90;;;;;;5096807;28;20038;-87
2023/05/14 02:21:34;;;;;;;13.77;7.03;;;12.30;99.90;;;;;;5096350;28;20046;-87
2023/05/14 02:23:59;;;;;;;14.52;11.93;;;12.30;99.90;;;;;;5097061;28;20404;-87
2023/05/14 02:26:25;;;;;;;18.33;8.15;;;12.30;99.90;;;;;;5113417;28;20408;-87
2023/05/14 02:28:51;;;;;;;19.27;12.52;;;12.30;99.90;;;;;;5114043;28;20093;-87
2023/05/14 02:31:18;;;;;;;16.42;11.57;;;12.30;99.90;;;;;;5096247;28;20605;-88
2023/05/14 02:33:44;;;;;;;11.52;6.70;;;12.30;99.90;;;;;;5096518;28;20040;-88
2023/05/14 02:36:09;;;;;;;15.50;7.18;;;12.20;99.90;;;;;;5096686;28;20031;-87
2023/05/14 02:38:35;;;;;;;15.98;12.48;;;12.10;99.90;;;;;;5096691;28;20085;-88
2023/05/14 02:41:01;;;;;;;12.38;7.70;;;12.10;99.90;;;;;;5096201;28;20237;-87
2023/05/14 02:43:26;;;;;;;12.90;6.82;;;12.10;99.90;;;;;;5096455;28;20042;-87
2023/05/14 02:45:52;;;;;;;11.43;6.63;;;12.00;99.90;;;;;;5096427;28;20088;-88
2023/05/14 02:48:17;;;;;;;13.60;6.70;;;12.00;99.90;;;;;;5113147;28;20043;-87
2023/05/14 02:50:43;;;;;;;12.32;7.28;;;11.90;99.90;;;;;;5095901;28;20097;-87
2023/05/14 02:53:09;;;;;;;11.15;6.30;;;11.90;99.90;;;;;;5096582;28;20058;-87
2023/05/14 02:55:35;;;;;;;13.88;6.72;;;11.80;99.90;;;;;;5113273;28;20047;-87
2023/05/14 02:58:00;;;;;;;13.30;6.85;;;11.70;99.90;;;;;;5096433;28;20043;-87
2023/05/14 03:00:26;;;;;;;13.70;7.40;;;11.70;99.90;;;;;;5112761;28;20471;-87
2023/05/14 03:02:51;;;;;;;16.17;12.73;;;11.60;99.90;;;;;;5094727;28;20408;-87
2023/05/14 03:05:17;;;;;;;13.75;7.22;;;11.70;99.90;;;;;;5112750;28;20119;-87
2023/05/14 03:07:43;;;;;;;14.57;7.10;;;11.70;99.90;;;;;;5096153;28;20093;-88
2023/05/14 03:10:09;;;;;;;18.77;8.63;;;11.60;99.90;;;;;;5095599;28;20043;-88
2023/05/14 03:12:34;;;;;;;16.70;8.27;;;11.60;99.90;;;;;;5095870;28;20038;-88
2023/05/14 03:15:00;;;;;;;15.30;8.35;;;11.60;99.90;;;;;;5095875;28;20035;-88
2023/05/14 03:17:25;;;;;;;17.25;8.80;;;11.60;99.90;;;;;;5112628;28;20071;-88
2023/05/14 03:19:51;;;;;;;14.55;8.05;;;11.60;99.90;;;;;;5095291;28;20130;-88
2023/05/14 03:22:17;;;;;;;14.50;8.23;;;11.60;99.90;;;;;;5095602;28;20036;-88
2023/05/14 03:24:42;;;;;;;16.55;8.63;;;11.60;99.90;;;;;;5112532;28;20036;-87
2023/05/14 03:27:08;;;;;;;14.15;7.80;;;11.60;99.90;;;;;;5112079;28;20043;-87
2023/05/14 03:29:33;;;;;;;16.65;7.55;;;11.60;99.90;;;;;;5112183;28;20127;-87
2023/05/14 03:31:59;;;;;;;15.30;8.80;;;11.50;99.90;;;;;;5095599;28;20043;-87
2023/05/14 03:34:25;;;;;;;13.93;7.22;;;11.50;99.90;;;;;;5095316;28;20075;-87
2023/05/14 03:36:50;;;;;;;12.88;6.55;;;11.50;99.90;;;;;;5095471;28;20040;-87
2023/05/14 03:39:19;;;;;;;11.55;6.53;;;11.50;99.90;;;;;;5112307;28;20496;-88
2023/05/14 03:41:45;;;;;;;10.70;5.55;;;11.40;99.90;;;;;;5095203;28;20461;-87
2023/05/14 03:44:11;;;;;;;11.60;7.03;;;11.40;99.90;;;;;;5112566;28;20040;-88
2023/05/14 03:46:37;;;;;;;13.00;7.22;;;11.30;99.90;;;;;;5095483;28;20560;-87
2023/05/14 03:49:03;;;;;;;16.20;7.50;;;11.30;99.90;;;;;;5112243;28;20075;-88
2023/05/14 03:51:28;;;;;;;14.05;8.18;;;11.20;99.90;;;;;;5094739;28;20039;-87
2023/05/14 03:53:54;;;;;;;14.85;7.45;;;11.20;99.90;;;;;;5094869;28;20035;-88
2023/05/14 03:56:20;;;;;;;12.48;7.55;;;11.20;99.90;;;;;;5112044;28;20040;-87
2023/05/14 03:58:46;;;;;;;15.07;7.93;;;11.20;99.90;;;;;;5111779;28;20062;-87
2023/05/14 04:01:11;;;;;;;15.23;8.55;;;11.20;99.90;;;;;;5111645;28;20066;-87
2023/05/14 04:03:37;;;;;;;14.40;7.90;;;11.20;99.90;;;;;;5095002;28;20031;-87
2023/05/14 04:06:03;;;;;;;15.27;7.55;;;11.20;99.90;;;;;;5112012;28;20126;-88
2023/05/14 04:08:28;;;;;;;12.38;6.93;;;11.20;99.90;;;;;;5113126;28;20031;-87
2023/05/14 04:10:54;;;;;;;12.55;7.38;;;11.10;99.90;;;;;;5094296;28;20051;-87
2023/05/14 04:13:20;;;;;;;14.57;8.13;;;11.10;99.90;;;;;;5111587;28;20039;-87
2023/05/14 04:15:45;;;;;;;20.38;8.13;;;11.10;99.90;;;;;;5094181;28;20131;-88
2023/05/14 04:18:11;;;;;;;15.00;8.05;;;11.10;99.90;;;;;;5111594;28;20114;-88
2023/05/14 04:20:37;;;;;;;15.02;8.10;;;11.10;99.90;;;;;;5094355;28;20389;-87
2023/05/14 04:23:02;;;;;;;16.00;7.30;;;11.10;99.90;;;;;;5094681;28;20493;-87
2023/05/14 04:25:28;;;;;;;13.48;7.82;;;11.10;99.90;;;;;;5111462;28;20048;-88
2023/05/14 04:27:54;;;;;;;14.95;7.72;;;11.10;99.90;;;;;;5094298;28;20497;-88
2023/05/14 04:30:20;;;;;;;13.43;7.68;;;11.00;99.90;;;;;;5094188;28;20109;-88
2023/05/14 04:32:45;;;;;;;17.33;7.95;;;11.10;99.90;;;;;;5111133;28;20118;-88
2023/05/14 04:35:11;;;;;;;14.65;7.53;;;11.10;99.90;;;;;;5111278;28;20381;-88
2023/05/14 04:37:37;;;;;;;14.60;7.75;;;11.10;99.90;;;;;;5094638;28;20035;-87
2023/05/14 04:40:04;;;;;;;13.90;7.40;;;11.10;99.90;;;;;;5094069;28;20723;-87
2023/05/14 04:42:30;;;;;;;13.80;7.97;;;11.10;99.90;;;;;;5094546;28;20377;-88
2023/05/14 04:44:55;;;;;;;16.33;8.00;;;11.10;99.90;;;;;;5094162;28;20547;-88
2023/05/14 04:47:21;;;;;;;13.88;7.78;;;11.20;99.90;;;;;;5094214;28;20047;-88
2023/05/14 04:49:47;;;;;;;14.68;7.35;;;11.10;99.90;;;;;;5093775;28;20040;-87
2023/05/14 04:52:12;;;;;;;15.98;7.60;;;11.10;99.90;;;;;;5111078;28;20092;-87
2023/05/14 04:54:38;;;;;;;14.50;8.27;;;11.20;99.90;;;;;;5110803;28;20127;-87
2023/05/14 04:57:04;;;;;;;16.00;8.30;;;11.20;99.90;;;;;;5093875;28;20039;-88
2023/05/14 04:59:30;;;;;;;15.73;8.57;;;11.20;99.90;;;;;;5093619;28;20092;-88
2023/05/14 05:01:55;;;;;;;15.88;8.27;;;11.20;99.90;;;;;;5111117;28;20036;-88
2023/05/14 05:04:22;;;;;;;13.82;7.30;;;11.30;99.90;;;;;;5111041;28;20036;-87
2023/05/14 05:06:49;;;;;;;15.02;7.40;;;11.30;99.90;;;;;;5093807;28;20039;-88
2023/05/14 05:09:16;;;;;;;14.20;7.95;;;11.30;99.90;;;;;;5110751;28;20097;-87
2023/05/14 05:11:41;;;;;;;14.57;8.00;;;11.40;99.90;;;;;;5110510;28;20122;-87
2023/05/14 05:14:07;;;;;;;15.48;8.02;;;11.40;99.90;;;;;;5093742;28;20130;-87
2023/05/14 05:16:33;;;;;;;17.25;9.35;;;11.40;99.90;;;;;;5110837;28;20061;-87
2023/05/14 05:18:58;;;;;;;14.30;8.30;;;11.50;99.90;;;;;;5093697;28;20752;-88
2023/05/14 05:21:24;;;;;;;14.40;8.95;;;11.60;99.90;;;;;;5110634;28;20176;-87
2023/05/14 05:23:49;;;;;;;16.85;8.60;;;11.60;99.90;;;;;;5093686;28;20035;-87
2023/05/14 05:26:15;;;;;;;17.35;9.13;;;11.60;99.90;;;;;;5094657;28;20036;-87
2023/05/14 05:28:41;;;;;;;20.42;11.63;;;11.70;99.90;;;;;;5097825;28;20046;-88
2023/05/14 05:31:06;;;;;;;17.38;10.73;;;11.80;99.90;;;;;;5114271;28;20036;-87
2023/05/14 05:33:33;;;;;;;21.15;17.38;;;11.80;99.90;;;;;;5095789;28;20361;-87
2023/05/14 05:35:59;;;;;;;17.42;9.60;;;12.00;99.90;;;;;;5079665;28;20047;-87
2023/05/14 05:38:25;;;;;;;18.58;9.20;;;12.10;99.90;;;;;;5096500;28;20138;-87
2023/05/14 05:40:51;;;;;;;17.58;9.68;;;12.20;99.90;;;;;;5096496;28;20032;-87
2023/05/14 05:43:16;;;;;;;16.27;9.07;;;12.20;99.90;;;;;;5097015;28;20097;-87
2023/05/14 05:45:42;;;;;;;19.05;10.50;;;12.30;99.90;;;;;;5096861;28;20131;-87
2023/05/14 05:48:08;;;;;;;18.70;10.68;;;12.40;99.90;;;;;;5096389;28;20075;-87
2023/05/14 05:50:33;;;;;;;16.88;10.30;;;12.50;99.90;;;;;;5080024;28;20040;-87
2023/05/14 05:52:59;;;;;;;15.73;9.20;;;12.50;99.90;;;;;;5096647;28;20386;-87
2023/05/14 05:55:25;;;;;;;20.42;11.40;;;12.60;99.90;;;;;;5079812;28;20044;-87
2023/05/14 05:57:50;;;;;;;17.33;9.93;;;12.70;99.90;;;;;;5079813;28;20436;-88
2023/05/14 06:00:16;;;;;;;20.27;10.10;;;12.80;99.90;;;;;;5079340;28;20035;-87
2023/05/14 06:02:42;;;;;;;19.98;10.40;;;12.80;99.90;;;;;;5080274;28;20661;-87
2023/05/14 06:05:09;;;;;;;21.20;11.90;;;12.90;99.90;;;;;;5079631;28;20443;-87
2023/05/14 06:07:35;;;;;;;19.17;12.10;;;13.00;99.90;;;;;;5096171;28;20432;-87
2023/05/14 06:10:01;;;;;;;17.77;9.82;;;13.10;99.90;;;;;;5079591;28;20503;-87
2023/05/14 06:12:27;;;;;;;19.50;16.35;;;13.20;99.90;;;;;;5096292;28;20039;-88
2023/05/14 06:14:56;;;;;;;18.63;16.15;;;13.30;99.90;;;;;;5079316;28;20043;-88
2023/05/14 06:17:23;;;;;;;15.20;10.38;;;13.40;99.90;;;;;;5096577;27;20032;-88
2023/05/14 06:19:50;;;;;;;15.98;9.52;;;13.50;99.90;;;;;;5106631;27;20054;-88
2023/05/14 06:22:15;;;;;;;16.73;9.50;;;13.50;99.90;;;;;;5098740;27;20380;-88
2023/05/14 06:24:41;;;;;;;19.58;11.25;;;13.60;99.90;;;;;;5099716;27;20563;-88
2023/05/14 06:27:07;;;;;;;17.10;14.90;;;13.60;99.90;;;;;;5099714;27;20043;-88
2023/05/14 06:29:32;;;;;;;17.83;10.75;;;13.80;99.90;;;;;;5098995;27;20488;-88
2023/05/14 06:32:02;;;;;;;20.20;9.90;;;13.90;99.90;;;;;;5116938;27;20077;-88
2023/05/14 06:34:28;;;;;;;16.65;10.05;;;13.90;99.90;;;;;;5099365;27;20039;-88
2023/05/14 06:36:54;;;;;;;16.90;10.18;;;13.90;99.90;;;;;;5134660;27;20079;-87
2023/05/14 06:39:19;;;;;;;18.67;15.40;;;14.00;99.90;;;;;;5099512;27;20475;-87
2023/05/14 06:41:45;;;;;;;19.90;16.38;;;14.10;99.90;;;;;;5099416;27;20326;-87
2023/05/14 06:44:11;;;;;;;14.35;9.80;;;14.20;99.90;;;;;;5116224;27;20404;-88
2023/05/14 06:46:36;;;;;;;17.50;11.07;;;14.30;99.90;;;;;;5099362;27;20039;-87
2023/05/14 06:49:02;;;;;;;18.55;15.32;;;14.40;99.90;;;;;;5116384;27;20043;-87
2023/05/14 06:51:27;;;;;;;19.88;16.45;;;14.50;99.90;;;;;;5098909;27;20046;-87
2023/05/14 06:53:54;;;;;;;19.70;15.52;;;14.60;99.90;;;;;;5098768;27;20035;-88
2023/05/14 06:56:22;;;;;;;19.80;15.57;;;14.80;99.90;;;;;;5099165;27;20119;-88
2023/05/14 06:58:48;;;;;;;17.33;10.30;;;14.80;99.90;;;;;;5098742;27;20042;-88
2023/05/14 07:01:13;;;;;;;16.15;10.55;;;14.90;99.90;;;;;;5115807;27;20035;-88
2023/05/14 07:03:39;;;;;;;16.83;14.77;;;14.90;99.90;;;;;;5099272;27;20054;-88
2023/05/14 07:06:05;;;;;;;20.75;15.48;;;15.00;99.90;;;;;;5095931;27;20136;-88
2023/05/14 07:08:31;;;;;;;20.10;14.95;;;15.10;99.90;;;;;;5086941;28;20070;-88
2023/05/14 07:10:57;;;;;;;15.45;10.82;;;15.20;99.90;;;;;;5095128;28;20492;-88
2023/05/14 07:13:23;;;;;;;17.27;14.70;;;15.20;99.90;;;;;;5078190;28;20039;-88
2023/05/14 07:15:50;;;;;;;18.40;14.30;;;15.30;99.90;;;;;;5078460;28;20417;-87
2023/05/14 07:18:15;;;;;;;17.55;11.13;;;15.40;99.90;;;;;;5077560;28;20111;-88
2023/05/14 07:20:41;;;;;;;18.05;14.13;;;15.50;99.90;;;;;;5078033;28;20320;-88
2023/05/14 07:23:06;;;;;;;19.45;14.70;;;15.60;99.90;;;;;;5078455;28;20032;-88
2023/05/14 07:25:32;;;;;;;14.32;10.05;;;15.70;99.90;;;;;;5094978;28;20043;-88
2023/05/14 07:27:58;;;;;;;16.20;13.30;;;15.90;99.90;;;;;;5094947;28;20036;-88
2023/05/14 07:30:23;;;;;;;15.38;13.27;;;16.00;99.90;;;;;;5078207;28;20508;-88
2023/05/14 07:32:49;;;;;;;16.77;13.80;;;16.10;99.90;;;;;;5078178;28;20505;-88
2023/05/14 07:35:15;;;;;;;17.35;11.52;;;16.20;99.90;;;;;;5094843;28;20040;-88
2023/05/14 07:37:41;;;;;;;16.90;12.23;;;16.20;99.90;;;;;;5077948;28;20036;-88
2023/05/14 07:40:08;;;;;;;15.90;13.43;;;16.30;99.90;;;;;;5094571;28;20047;-88
2023/05/14 07:42:34;;;;;;;16.75;12.05;;;16.40;99.90;;;;;;5094922;28;20053;-89
2023/05/14 07:45:00;;;;;;;16.33;11.68;;;16.50;99.90;;;;;;5095107;28;20080;-89
2023/05/14 07:47:25;;;;;;;18.10;13.55;;;16.60;99.90;;;;;;5077672;28;20047;-89
2023/05/14 07:49:55;;;;;;;18.80;13.98;;;16.70;99.90;;;;;;5076914;28;20051;-88
2023/05/14 07:52:21;;;;;;;17.65;13.98;;;16.80;99.90;;;;;;5094672;28;20524;-89
2023/05/14 07:54:47;;;;;;;17.25;13.63;;;16.90;99.90;;;;;;5098743;28;20032;-88
2023/05/14 07:57:13;;;;;;;17.67;14.32;;;17.00;99.90;;;;;;5077550;28;20552;-89
2023/05/14 07:59:38;;;;;;;13.88;12.32;;;17.10;99.90;;;;;;5078154;27;20040;-89
2023/05/14 08:02:04;;;;;;;16.55;12.60;;;17.20;99.90;;;;;;5085699;28;20039;-89
2023/05/14 08:04:30;;;;;;;16.38;12.63;;;17.30;99.90;;;;;;5077596;28;20042;-88
2023/05/14 08:06:57;;;;;;;17.88;11.23;;;17.40;99.90;;;;;;5094045;28;20085;-88
2023/05/14 08:09:23;;;;;;;17.42;11.93;;;17.50;99.90;;;;;;5076813;28;20047;-88
2023/05/14 08:11:48;;;;;;;15.82;10.98;;;17.60;99.90;;;;;;5095762;27;20049;-88
2023/05/14 08:14:14;;;;;;;14.80;11.38;;;17.70;99.90;;;;;;5109517;27;20039;-88
2023/05/14 08:16:40;;;;;;;12.45;10.23;;;17.80;99.90;;;;;;5115093;27;20074;-88
2023/05/14 08:19:05;;;;;;;13.60;10.20;;;17.90;99.90;;;;;;5098034;27;20034;-89
2023/05/14 08:21:31;;;;;;;12.93;9.52;;;17.90;99.90;;;;;;5114721;27;20031;-88
2023/05/14 08:23:57;;;;;;;14.95;11.27;;;18.00;99.90;;;;;;5114805;27;20039;-88
2023/05/14 08:26:22;;;;;;;13.80;10.88;;;18.20;99.90;;;;;;5114733;27;20070;-88
2023/05/14 08:28:48;;;;;;;14.20;11.23;;;18.20;99.90;;;;;;5114934;27;20039;-89
2023/05/14 08:31:14;;;;;;;15.95;11.65;;;18.30;99.90;;;;;;5097530;27;20031;-88
2023/05/14 08:33:40;;;;;;;13.50;11.07;;;18.40;99.90;;;;;;5114808;27;20411;-88
2023/05/14 08:36:06;;;;;;;13.77;10.63;;;18.40;99.90;;;;;;5097551;27;20046;-88
2023/05/14 08:38:32;;;;;;;14.60;11.77;;;18.40;99.90;;;;;;5097696;27;20432;-89
2023/05/14 08:40:58;;;;;;;15.77;11.45;;;18.50;99.80;;;;;;5097101;27;20035;-89
2023/05/14 08:43:57;;;;;;;14.57;11.70;;;18.50;99.50;;;;;;5096115;28;20118;-89
2023/05/14 08:46:24;;;;;;;15.25;12.77;;;18.60;98.70;;;;;;5104621;27;20049;-89
2023/05/14 08:49:03;;;;;;;17.38;13.35;;;18.60;99.70;;;;;;5099934;28;20031;-88
2023/05/14 08:51:30;;;;;;;16.55;14.05;;;18.70;99.90;;;;;;5096238;27;20036;-89
2023/05/14 08:54:01;;;;;;;15.52;13.38;;;18.70;99.90;;;;;;5085669;27;20027;-89
2023/05/14 08:56:27;;;;;;;16.70;13.68;;;18.80;99.90;;;;;;5076806;28;20485;-89
2023/05/14 08:58:52;;;;;;;17.38;14.57;;;18.90;99.90;;;;;;5093565;28;20043;-89
2023/05/14 09:01:18;;;;;;;18.13;14.15;;;19.00;99.90;;;;;;5093511;28;20031;-88
2023/05/14 09:03:44;;;;;;;16.00;12.15;;;19.10;99.90;;;;;;5093330;28;20089;-88
2023/05/14 09:06:11;;;;;;;14.65;12.25;;;19.20;99.90;;;;;;5085432;28;20122;-89
2023/05/14 09:08:37;;;;;;;14.93;10.98;;;19.30;98.40;;;;;;5113327;28;20035;-87
2023/05/14 09:11:03;;;;;;;15.10;12.10;;;19.50;96.60;;;;;;5113428;28;20047;-87
2023/05/14 09:13:28;;;;;;;16.80;11.68;;;19.60;94.00;;;;;;5114073;28;20048;-87
2023/05/14 09:15:55;;;;;;;16.83;12.85;;;19.60;91.80;;;;;;5096567;28;20515;-86
2023/05/14 09:18:20;;;;;;;13.77;11.45;;;19.70;91.80;;;;;;5113521;28;20589;-86
2023/05/14 09:20:46;;;;;;;16.15;12.00;;;19.80;90.30;;;;;;5096421;28;20039;-87
2023/05/14 09:23:12;;;;;;;12.55;10.25;;;19.90;90.20;;;;;;5096842;28;20046;-86
2023/05/14 09:25:38;;;;;;;13.60;10.40;;;20.00;86.60;;;;;;5096810;28;20035;-86
2023/05/14 09:28:07;;;;;;;14.43;10.25;;;20.00;83.70;;;;;;5096468;28;20496;-86
2023/05/14 09:30:33;;;;;;;13.68;10.57;;;20.10;83.10;;;;;;5113221;28;20070;-87
2023/05/14 09:33:00;;;;;;;14.88;11.02;;;20.10;81.70;;;;;;5096751;28;20118;-87
2023/05/14 09:35:25;;;;;;;15.85;10.57;;;20.10;81.20;;;;;;5096668;28;20621;-86
2023/05/14 09:37:53;;;;;;;13.63;10.38;;;20.10;80.90;;;;;;5096480;28;20067;-86
2023/05/14 09:40:21;;;;;;;13.70;10.40;;;20.10;81.90;;;;;;5131698;28;20046;-86
2023/05/14 09:42:48;;;;;;;15.65;10.35;;;20.20;83.30;;;;;;5113561;28;20393;-87
2023/05/14 09:45:14;;;;;;;15.88;10.27;;;20.20;83.80;;;;;;5096409;28;20039;-86
2023/05/14 09:47:40;;;;;;;13.45;10.48;;;20.30;82.70;;;;;;5096035;28;20046;-86
2023/05/14 09:50:06;;;;;;;14.40;9.88;;;20.30;81.00;;;;;;5096170;28;20039;-86
2023/05/14 09:52:32;;;;;;;14.73;9.32;;;20.30;80.80;;;;;;5095075;28;20070;-86
2023/05/14 09:54:59;;;;;;;15.57;11.70;;;20.30;81.40;;;;;;5113110;28;20054;-86
2023/05/14 09:57:25;;;;;;;14.40;10.90;;;20.40;81.10;;;;;;5113322;28;20031;-86
2023/05/14 09:59:51;;;;;;;15.10;11.27;;;20.50;80.70;;;;;;5095982;28;20372;-85
2023/05/14 10:02:24;;;;;;;13.25;9.57;;;20.50;79.80;;;;;;5096240;28;20043;-86
2023/05/14 10:04:51;;;;;;;14.18;10.50;;;20.60;79.10;;;;;;5113291;28;20043;-86
2023/05/14 10:07:22;;;;;;;13.85;8.65;;;20.60;78.90;;;;;;5096145;28;20123;-87
2023/05/14 10:09:49;;;;;;;13.32;8.90;;;20.70;78.20;;;;;;5095715;28;20125;-86
2023/05/14 10:12:20;;;;;;;13.30;8.80;;;20.80;76.40;;;;;;5096782;27;20050;-87
2023/05/14 10:14:52;;;;;;;11.60;8.45;;;20.80;75.00;;;;;;5135600;27;20062;-87
2023/05/14 10:17:20;;;;;;;11.37;8.17;;;20.80;75.30;;;;;;5100053;27;20035;-86
2023/05/14 10:19:55;;;;;;;10.27;7.15;;;21.00;75.70;;;;;;5099818;27;20325;-86
2023/05/14 10:22:23;;;;;;;11.93;7.72;;;21.10;75.30;;;;;;5116834;27;20067;-86
2023/05/14 10:24:52;;;;;;;11.68;7.95;;;21.20;75.40;;;;;;5099872;27;20043;-87
2023/05/14 10:27:20;;;;;;;11.45;8.38;;;21.40;74.90;;;;;;5117062;27;20480;-87
2023/05/14 10:29:52;;;;;;;12.15;8.25;;;21.50;74.80;;;;;;5099237;27;20043;-87
2023/05/14 10:32:20;;;;;;;10.95;7.50;;;21.70;75.20;;;;;;5100041;27;20035;-88
2023/05/14 10:34:47;;;;;;;12.60;7.82;;;21.70;73.40;;;;;;5116643;27;20108;-87
2023/05/14 10:37:16;;;;;;;12.57;7.82;;;21.80;73.00;;;;;;5116953;27;20792;-88
2023/05/14 10:39:55;;;;;;;12.60;7.22;;;21.90;72.90;;;;;;5099136;27;20042;-88
2023/05/14 10:42:26;;;;;;;13.52;8.30;;;21.90;72.10;;;;;;5099573;27;20070;-88
2023/05/14 10:45:00;;;;;;;13.20;8.85;;;22.00;74.00;;;;;;5115337;27;20047;-88
2023/05/14 10:47:27;;;;;;;11.77;7.60;;;22.10;71.70;;;;;;5116528;27;20043;-88
2023/05/14 10:49:56;;;;;;;10.73;6.70;;;22.10;71.40;;;;;;5116457;27;20088;-87
2023/05/14 10:52:23;;;;;;;11.43;7.28;;;22.30;71.10;;;;;;5100160;27;20043;-88
2023/05/14 10:54:56;;;;;;;11.18;7.15;;;22.50;70.70;;;;;;5117089;27;20058;-87
2023/05/14 10:57:24;;;;;;;11.60;7.28;;;22.50;67.20;;;;;;5116707;27;20028;-88
2023/05/14 10:59:56;;;;;;;11.15;6.88;;;22.60;66.80;;;;;;5134951;27;20057;-88
2023/05/14 11:02:22;;;;;;;13.77;7.13;;;22.60;67.20;;;;;;5092260;27;20027;-87
2023/05/14 11:04:58;;;;;;;10.85;7.35;;;22.70;66.20;;;;;;5099292;27;20131;-88
2023/05/14 11:07:37;;;;;;;10.48;6.75;;;22.70;67.20;;;;;;5113687;27;20042;-88
2023/05/14 11:10:07;;;;;;;12.43;7.50;;;22.80;67.70;;;;;;5099332;27;20408;-88
2023/05/14 11:12:34;;;;;;;12.55;7.70;;;22.90;68.30;;;;;;5116975;27;20047;-87
2023/05/14 11:15:02;;;;;;;11.70;7.07;;;22.90;70.10;;;;;;5099472;27;20435;-87
2023/05/14 11:17:29;;;;;;;10.35;6.75;;;22.90;68.20;;;;;;5081888;28;20036;-87
2023/05/14 11:19:56;;;;;;;10.70;6.22;;;22.90;66.00;;;;;;5078738;28;20115;-87
2023/05/14 11:22:22;;;;;;;9.40;5.88;;;23.00;66.20;;;;;;5114298;28;20075;-87
2023/05/14 11:24:48;;;;;;;12.20;6.65;;;23.10;66.50;;;;;;5077649;28;20041;-87
2023/05/14 11:27:14;;;;;;;10.63;6.28;;;23.20;65.80;;;;;;5113885;28;20047;-88
2023/05/14 11:29:47;;;;;;;9.77;6.10;;;23.20;64.70;;;;;;5116085;27;20040;-87
2023/05/14 11:32:13;;;;;;;10.07;6.57;;;23.30;64.50;;;;;;5096688;27;20066;-88
2023/05/14 11:34:40;;;;;;;10.43;6.78;;;23.50;64.60;;;;;;5115921;27;20043;-88
2023/05/14 11:37:07;;;;;;;11.23;6.20;;;23.50;64.40;;;;;;5134409;27;20516;-88
2023/05/14 11:39:33;;;;;;;10.32;6.05;;;23.70;64.70;;;;;;5098542;27;20058;-88
2023/05/14 11:42:01;;;;;;;10.25;5.53;;;23.80;63.90;;;;;;5098745;27;20039;-88
2023/05/14 11:44:27;;;;;;;11.00;5.63;;;23.90;63.30;;;;;;5098964;27;20039;-87
2023/05/14 11:46:54;;;;;;;10.10;5.70;;;23.90;62.50;;;;;;5098650;27;20496;-88
2023/05/14 11:49:22;;;;;;;9.27;6.07;;;24.00;62.40;;;;;;5115778;27;20046;-88
2023/05/14 11:51:48;;;;;;;11.07;6.50;;;24.10;63.40;;;;;;5115830;27;20095;-87
2023/05/14 11:54:14;;;;;;;9.13;5.78;;;24.20;63.70;;;;;;5088726;27;20039;-88
2023/05/14 11:56:39;;;;;;;11.60;6.57;;;24.30;62.70;;;;;;5093029;27;20049;-88
2023/05/14 11:59:05;;;;;;;10.25;5.65;;;24.40;61.70;;;;;;5115587;27;20449;-88
2023/05/14 12:01:37;;;;;;;9.02;6.13;;;24.50;61.60;;;;;;5098532;27;20031;-88
2023/05/14 12:04:06;;;;;;;11.35;5.68;;;24.60;61.20;;;;;;5115447;27;20035;-88
2023/05/14 12:06:32;;;;;;;10.65;5.28;;;24.60;61.40;;;;;;5133693;27;20034;-88
2023/05/14 12:08:59;;;;;;;9.57;5.25;;;24.70;61.30;;;;;;5098324;27;20042;-88
2023/05/14 12:11:30;;;;;;;9.70;5.40;;;24.80;60.90;;;;;;5097841;27;20084;-87
2023/05/14 12:14:00;;;;;;;8.73;5.15;;;25.00;60.70;;;;;;5115236;27;20488;-88
2023/05/14 12:16:32;;;;;;;9.90;5.22;;;25.10;59.90;;;;;;5110099;27;20118;-88
2023/05/14 12:19:01;;;;;;;9.73;5.82;;;25.30;59.70;;;;;;5084389;27;20031;-88
2023/05/14 12:21:28;;;;;;;10.18;5.50;;;25.30;57.90;;;;;;5087147;27;20122;-88
2023/05/14 12:23:59;;;;;;;10.77;5.75;;;25.30;57.90;;;;;;5124099;27;20088;-88
2023/05/14 12:26:28;;;;;;;9.68;5.47;;;25.40;57.50;;;;;;5104958;27;20035;-88
2023/05/14 12:29:02;;;;;;;10.48;5.28;;;25.50;58.00;;;;;;5086307;27;20481;-88
2023/05/14 12:31:32;;;;;;;12.43;6.53;;;25.50;57.70;;;;;;5107149;27;20035;-88